Time;durP1;ratioP1;P1;durP2;ratioP2;P2;SDS_P1;SDS_P2;PMS_P1;PMS_P2;Temp;Humidity;BMP_temperature;BMP_pressure;BME280_temperature;BME280_humidity;BME280_pressure;Samples;Min_cycle;Max_cycle;Signal;HPM_P1;HPM_P2
2022/06/10 06:24:43;;;;;;;8.02;2.75;;;15.40;99.90;;;;;;5090784;27;20567;-71
2022/06/10 06:27:14;;;;;;;3.25;2.85;;;15.50;99.90;;;;;;5090936;28;20586;-72
2022/06/10 06:29:40;;;;;;;12.32;3.53;;;15.60;99.90;;;;;;5090846;28;20195;-72
2022/06/10 06:32:06;;;;;;;5.30;2.40;;;15.70;99.90;;;;;;5090799;28;20209;-72
2022/06/10 06:34:32;;;;;;;5.72;2.85;;;15.80;99.90;;;;;;5090810;28;20660;-72
2022/06/10 06:36:58;;;;;;;5.47;2.67;;;15.90;99.90;;;;;;5089395;28;20187;-72
2022/06/10 06:39:25;;;;;;;5.57;2.45;;;16.00;99.90;;;;;;5089417;28;20198;-72
2022/06/10 06:41:52;;;;;;;9.30;2.55;;;16.10;99.90;;;;;;5090684;28;20171;-72
2022/06/10 06:44:18;;;;;;;4.90;2.28;;;16.20;99.90;;;;;;5090537;28;20564;-73
2022/06/10 06:46:45;;;;;;;4.97;2.53;;;16.30;99.90;;;;;;5089187;28;20671;-72
2022/06/10 06:49:17;;;;;;;8.80;2.42;;;16.40;99.90;;;;;;5090462;28;20263;-71
2022/06/10 06:51:43;;;;;;;4.97;2.30;;;16.40;99.90;;;;;;5090358;28;20648;-73
2022/06/10 06:54:09;;;;;;;4.63;2.00;;;16.50;99.90;;;;;;5090382;28;20172;-73
2022/06/10 06:56:35;;;;;;;6.43;2.38;;;16.50;99.90;;;;;;5089031;28;20176;-73
2022/06/10 06:59:00;;;;;;;3.63;2.70;;;16.50;99.90;;;;;;5088903;28;20186;-77
2022/06/10 07:01:26;;;;;;;3.72;2.15;;;16.50;99.90;;;;;;5090238;28;20175;-72
2022/06/10 07:03:51;;;;;;;5.65;2.10;;;16.60;99.90;;;;;;5090136;28;20545;-72
2022/06/10 07:06:18;;;;;;;4.38;2.30;;;16.70;99.90;;;;;;5089895;28;20176;-72
2022/06/10 07:08:43;;;;;;;12.40;2.83;;;16.80;99.90;;;;;;5090078;28;20164;-72
2022/06/10 07:11:09;;;;;;;3.90;1.80;;;16.90;99.90;;;;;;5090029;28;20174;-72
2022/06/10 07:13:38;;;;;;;6.05;2.30;;;16.90;99.90;;;;;;5089981;28;20194;-72
2022/06/10 07:16:53;;;;;;;8.13;2.63;;;16.90;99.90;;;;;;5089906;28;20163;-72
2022/06/10 07:19:20;;;;;;;5.47;2.55;;;16.90;99.90;;;;;;5089894;28;20172;-71
2022/06/10 07:21:46;;;;;;;7.38;2.45;;;17.00;99.90;;;;;;5089663;28;20262;-71
2022/06/10 07:24:12;;;;;;;2.35;2.10;;;16.90;99.90;;;;;;5089603;28;20357;-71
2022/06/10 07:26:39;;;;;;;7.40;2.33;;;16.90;99.90;;;;;;5089855;28;20168;-71
2022/06/10 07:29:05;;;;;;;5.05;1.70;;;16.90;99.90;;;;;;5089622;28;20618;-71
2022/06/10 07:31:31;;;;;;;4.53;2.10;;;16.90;99.90;;;;;;5089620;28;20198;-71
2022/06/10 07:33:57;;;;;;;3.15;2.13;;;16.90;99.90;;;;;;5088522;28;20159;-72
2022/06/10 07:36:23;;;;;;;4.93;2.58;;;17.00;99.90;;;;;;5075699;28;20168;-72
2022/06/10 07:38:48;;;;;;;2.67;2.20;;;17.00;99.90;;;;;;5076009;28;20251;-71
2022/06/10 07:43:59;;;;;;;6.90;2.47;;;17.10;99.90;;;;;;5075970;28;20291;-71
2022/06/10 07:46:24;;;;;;;9.77;2.17;;;17.20;99.90;;;;;;5075913;28;20415;-71
2022/06/10 07:48:51;;;;;;;3.95;1.85;;;17.30;99.90;;;;;;5075823;28;20160;-71
2022/06/10 07:51:18;;;;;;;4.65;2.13;;;17.40;99.90;;;;;;5075837;28;20168;-71
2022/06/10 07:53:44;;;;;;;6.93;2.55;;;17.40;99.90;;;;;;5075762;28;20174;-71
2022/06/10 07:56:13;;;;;;;4.15;2.30;;;17.40;99.90;;;;;;5075650;28;20246;-71
2022/06/10 07:58:39;;;;;;;7.00;2.25;;;17.40;99.90;;;;;;5075816;28;20226;-71
2022/06/10 08:01:05;;;;;;;5.55;2.08;;;17.30;99.90;;;;;;5074319;28;20173;-73
2022/06/10 08:03:31;;;;;;;6.25;1.73;;;17.40;99.90;;;;;;5075454;28;20245;-73
2022/06/10 08:05:58;;;;;;;8.90;1.77;;;17.40;99.90;;;;;;5075524;28;20621;-73
2022/06/10 08:08:25;;;;;;;5.85;1.75;;;17.50;99.90;;;;;;5075592;28;20532;-73
2022/06/10 08:10:51;;;;;;;9.50;2.50;;;17.50;99.90;;;;;;5075404;28;20176;-73
2022/06/10 08:13:17;;;;;;;4.18;2.33;;;17.60;99.90;;;;;;5075307;28;20179;-73
2022/06/10 08:15:45;;;;;;;5.25;2.40;;;17.60;99.90;;;;;;5075334;28;20168;-74
2022/06/10 08:18:15;;;;;;;3.63;1.98;;;17.60;99.90;;;;;;5075323;28;20176;-74
2022/06/10 08:23:29;;;;;;;6.50;2.35;;;17.60;99.90;;;;;;5075056;28;20227;-73
2022/06/10 08:25:57;;;;;;;4.57;1.85;;;17.50;99.90;;;;;;5073923;28;20179;-73
2022/06/10 08:28:23;;;;;;;5.68;2.20;;;17.50;99.90;;;;;;5075239;28;20509;-73
2022/06/10 08:30:49;;;;;;;8.13;2.05;;;17.50;99.90;;;;;;5075081;28;20164;-74
2022/06/10 08:33:15;;;;;;;5.82;2.10;;;17.60;99.90;;;;;;5074989;28;20215;-74
2022/06/10 08:35:41;;;;;;;5.55;1.88;;;17.70;99.90;;;;;;5074967;28;20165;-73
2022/06/10 08:38:10;;;;;;;4.13;2.00;;;17.90;99.90;;;;;;5074931;28;20217;-74
2022/06/10 08:40:50;;;;;;;5.47;1.80;;;17.90;99.90;;;;;;5074787;28;20215;-74
2022/06/10 08:43:33;;;;;;;5.00;2.15;;;18.00;99.90;;;;;;5074796;28;20203;-73
2022/06/10 08:46:03;;;;;;;7.22;2.72;;;18.00;99.90;;;;;;5074103;28;20213;-73
2022/06/10 08:48:34;;;;;;;5.63;2.20;;;18.00;99.90;;;;;;5074584;28;20195;-72
2022/06/10 08:51:16;;;;;;;10.07;3.25;;;18.20;99.90;;;;;;5074569;28;20179;-70
2022/06/10 08:54:14;;;;;;;6.57;2.45;;;18.30;99.90;;;;;;5074619;28;20258;-71
2022/06/10 08:56:44;;;;;;;7.35;2.03;;;18.20;99.90;;;;;;5074261;28;20263;-70
2022/06/10 08:59:25;;;;;;;9.68;2.58;;;18.10;99.90;;;;;;5074532;28;20192;-71
2022/06/10 09:02:19;;;;;;;4.40;1.98;;;18.10;99.90;;;;;;5073149;28;20176;-71
2022/06/10 09:05:23;;;;;;;7.68;2.22;;;18.10;99.90;;;;;;5074293;28;20712;-71
2022/06/10 09:07:52;;;;;;;3.85;1.50;;;18.00;99.90;;;;;;5074310;28;20500;-71
2022/06/10 09:10:30;;;;;;;7.47;2.17;;;17.90;99.90;;;;;;5074201;28;20164;-70
2022/06/10 09:13:22;;;;;;;6.53;2.00;;;17.80;99.90;;;;;;5074232;28;20172;-71
2022/06/10 09:15:50;;;;;;;6.47;1.75;;;17.70;99.90;;;;;;5073295;28;20184;-70
2022/06/10 09:18:45;;;;;;;7.63;2.10;;;17.80;99.90;;;;;;5074113;28;20167;-70
2022/06/10 09:21:29;;;;;;;4.50;1.52;;;18.00;99.90;;;;;;5070153;28;20237;-70
2022/06/10 09:23:58;;;;;;;11.55;1.95;;;18.20;99.90;;;;;;5073786;28;20567;-70
2022/06/10 09:26:33;;;;;;;5.97;1.85;;;18.30;99.90;;;;;;5073986;28;20164;-70
2022/06/10 09:28:59;;;;;;;3.67;1.60;;;18.40;99.90;;;;;;5073971;28;20159;-70
2022/06/10 09:31:56;;;;;;;6.28;2.08;;;18.50;99.90;;;;;;5073671;28;20191;-70
2022/06/10 09:34:52;;;;;;;7.15;2.25;;;18.40;99.90;;;;;;5073811;28;20175;-70
2022/06/10 09:37:26;;;;;;;4.15;1.67;;;18.30;99.90;;;;;;5073784;28;20164;-70
2022/06/10 09:43:23;;;;;;;8.05;1.90;;;18.40;99.90;;;;;;5073885;28;20287;-69
2022/06/10 09:45:55;;;;;;;5.38;2.22;;;18.40;99.90;;;;;;5073531;28;20179;-70
2022/06/10 09:48:29;;;;;;;7.30;3.05;;;18.60;99.90;;;;;;5073456;28;20160;-71
2022/06/10 09:51:06;;;;;;;6.85;1.65;;;18.70;99.90;;;;;;5073555;28;20233;-70
2022/06/10 09:54:11;;;;;;;3.83;2.05;;;18.80;99.90;;;;;;5073537;28;20175;-70
2022/06/10 09:57:08;;;;;;;6.65;2.20;;;19.00;99.90;;;;;;5073566;28;20246;-70
2022/06/10 09:59:55;;;;;;;9.32;2.20;;;19.00;99.90;;;;;;5073491;28;20160;-71
2022/06/10 10:02:49;;;;;;;8.00;2.80;;;18.90;99.90;;;;;;5073463;28;20164;-71
2022/06/10 10:05:21;;;;;;;8.43;2.42;;;18.80;99.90;;;;;;5073343;28;20183;-72
2022/06/10 10:07:51;;;;;;;7.90;2.60;;;18.80;99.90;;;;;;5072122;28;20178;-72
2022/06/10 10:10:19;;;;;;;10.88;2.83;;;18.70;99.90;;;;;;5073381;28;20245;-71
2022/06/10 10:13:00;;;;;;;8.15;2.72;;;18.70;99.90;;;;;;5072058;28;20552;-72
2022/06/10 10:15:35;;;;;;;5.20;2.35;;;18.80;99.90;;;;;;5073355;28;20195;-72
2022/06/10 10:18:07;;;;;;;6.43;2.45;;;18.90;99.90;;;;;;5071998;28;20179;-72
2022/06/10 10:20:51;;;;;;;4.88;2.58;;;18.90;99.90;;;;;;5073261;28;20163;-72
2022/06/10 10:23:33;;;;;;;8.13;2.80;;;19.00;99.90;;;;;;5071742;28;20223;-72
2022/06/10 10:25:59;;;;;;;10.07;2.60;;;19.10;99.90;;;;;;5073168;28;20171;-72
2022/06/10 10:28:30;;;;;;;6.30;2.20;;;19.40;99.90;;;;;;5073203;28;20503;-72
2022/06/10 10:31:10;;;;;;;9.30;2.80;;;19.50;99.90;;;;;;5073115;28;20176;-72
2022/06/10 10:33:35;;;;;;;3.97;2.30;;;19.80;99.90;;;;;;5071953;28;20530;-70
2022/06/10 10:36:17;;;;;;;6.72;2.90;;;19.90;99.90;;;;;;5073109;28;20625;-71
2022/06/10 10:38:45;;;;;;;4.15;2.70;;;19.90;99.90;;;;;;5073011;28;20171;-72
2022/06/10 10:41:23;;;;;;;6.72;2.20;;;19.90;99.90;;;;;;5071807;28;20176;-72
2022/06/10 10:43:53;;;;;;;8.05;3.08;;;19.80;99.90;;;;;;5071722;28;20248;-71
2022/06/10 10:46:34;;;;;;;7.20;2.72;;;19.60;99.90;;;;;;5072961;28;20175;-72
2022/06/10 10:49:16;;;;;;;7.57;2.50;;;19.40;99.90;;;;;;5072944;28;20172;-72
2022/06/10 10:51:42;;;;;;;5.90;2.13;;;19.60;99.90;;;;;;5072950;28;20214;-72
2022/06/10 10:54:36;;;;;;;10.70;3.08;;;20.00;99.90;;;;;;5072973;28;20653;-72
2022/06/10 10:57:21;;;;;;;7.63;2.60;;;20.20;99.90;;;;;;5071843;28;20263;-72
2022/06/10 10:59:55;;;;;;;6.25;2.15;;;20.40;99.90;;;;;;5071517;28;20195;-72
2022/06/10 11:02:31;;;;;;;7.38;2.45;;;20.60;99.90;;;;;;5072152;28;20638;-75
2022/06/10 11:05:16;;;;;;;4.13;2.15;;;20.70;99.90;;;;;;5072660;28;20621;-74
2022/06/10 11:07:43;;;;;;;5.20;2.28;;;20.80;99.90;;;;;;5072495;28;20156;-73
2022/06/10 11:10:17;;;;;;;4.70;2.40;;;20.90;99.90;;;;;;5074211;28;20213;-72
2022/06/10 11:12:44;;;;;;;6.05;2.38;;;20.80;99.90;;;;;;5076433;28;20172;-73
2022/06/10 11:15:27;;;;;;;3.22;2.05;;;20.80;99.90;;;;;;5076417;28;20246;-73
2022/06/10 11:17:54;;;;;;;4.40;2.30;;;20.80;99.90;;;;;;5076294;28;20171;-73
2022/06/10 11:20:25;;;;;;;6.75;2.80;;;20.80;99.90;;;;;;5076241;28;20247;-73
2022/06/10 11:23:21;;;;;;;8.15;2.20;;;20.90;99.90;;;;;;5076456;28;20219;-74
2022/06/10 11:26:12;;;;;;;3.42;1.60;;;21.20;99.90;;;;;;5076245;28;20290;-73
2022/06/10 11:28:42;;;;;;;5.13;1.88;;;21.40;99.90;;;;;;5074933;28;20268;-74
2022/06/10 11:31:47;;;;;;;6.35;2.60;;;21.40;99.90;;;;;;5076175;28;20174;-73
2022/06/10 11:34:36;;;;;;;7.35;2.17;;;21.60;99.90;;;;;;5075464;28;20544;-73
2022/06/10 11:37:27;;;;;;;3.60;2.30;;;21.60;99.90;;;;;;5075767;28;20184;-74
2022/06/10 11:40:11;;;;;;;4.22;1.70;;;21.70;99.90;;;;;;5076074;28;20179;-73
2022/06/10 11:42:57;;;;;;;4.35;1.75;;;21.80;99.90;;;;;;5075899;28;20168;-73
2022/06/10 11:45:37;;;;;;;4.97;2.15;;;21.80;99.90;;;;;;5075884;28;20198;-73
2022/06/10 11:48:16;;;;;;;4.75;1.88;;;21.90;99.90;;;;;;5075887;28;20202;-74
2022/06/10 11:51:04;;;;;;;6.53;2.13;;;22.10;99.90;;;;;;5075861;28;20170;-73
2022/06/10 11:53:39;;;;;;;6.00;2.05;;;22.10;99.90;;;;;;5074450;28;20176;-73
2022/06/10 12:01:47;;;;;;;3.70;2.13;;;22.10;99.90;;;;;;5076010;28;20201;-72
2022/06/10 12:04:21;;;;;;;4.13;1.92;;;22.20;99.90;;;;;;5074171;28;20206;-73
2022/06/10 12:07:04;;;;;;;3.03;1.50;;;22.20;99.90;;;;;;5075628;28;20172;-73
2022/06/10 12:09:52;;;;;;;5.00;1.75;;;22.20;99.90;;;;;;5075608;28;20172;-72
2022/06/10 12:12:28;;;;;;;9.32;2.30;;;22.20;99.90;;;;;;5075118;28;20190;-72
2022/06/10 12:14:56;;;;;;;2.95;1.60;;;22.00;99.90;;;;;;5075405;28;20167;-74
2022/06/10 12:17:40;;;;;;;6.30;2.08;;;22.30;99.90;;;;;;5075340;28;20170;-74
2022/06/10 12:20:13;;;;;;;3.40;1.30;;;22.20;99.90;;;;;;5075261;28;20167;-74
2022/06/10 12:22:39;;;;;;;2.78;1.40;;;22.00;99.90;;;;;;5075061;28;20265;-70
2022/06/10 12:25:16;;;;;;;4.15;1.80;;;21.80;99.90;;;;;;5075342;28;20698;-71
2022/06/10 12:27:53;;;;;;;6.68;1.70;;;21.80;99.90;;;;;;5073957;28;20528;-71
2022/06/10 12:30:37;;;;;;;7.13;2.35;;;21.80;99.90;;;;;;5075180;28;20163;-72
2022/06/10 12:33:27;;;;;;;5.50;1.77;;;22.00;99.90;;;;;;5075045;28;20167;-72
2022/06/10 12:35:55;;;;;;;1.30;1.17;;;22.00;99.90;;;;;;5074934;28;20172;-71
2022/06/10 12:38:32;;;;;;;3.28;2.13;;;21.90;99.90;;;;;;5074980;28;20172;-72
2022/06/10 12:41:02;;;;;;;2.45;1.75;;;21.80;99.90;;;;;;5074859;28;20163;-72
2022/06/10 12:43:31;;;;;;;4.85;1.70;;;21.90;99.90;;;;;;5074724;28;20195;-72
2022/06/10 12:46:01;;;;;;;1.95;1.30;;;21.90;99.90;;;;;;5074761;28;20176;-74
2022/06/10 12:48:30;;;;;;;2.63;1.58;;;22.10;99.90;;;;;;5073687;28;20199;-75
2022/06/10 12:51:23;;;;;;;3.42;1.63;;;22.30;99.90;;;;;;5074673;28;20171;-74
2022/06/10 12:53:57;;;;;;;4.75;1.73;;;22.40;99.90;;;;;;5074688;28;20632;-74
2022/06/10 12:56:32;;;;;;;2.90;1.40;;;22.50;99.90;;;;;;5074536;28;20164;-73
2022/06/10 12:59:07;;;;;;;2.20;2.00;;;22.60;99.90;;;;;;5074421;28;20236;-72
2022/06/10 13:01:32;;;;;;;4.82;2.05;;;22.80;99.90;;;;;;5073161;28;20186;-72
2022/06/10 13:04:04;;;;;;;7.30;1.98;;;22.70;99.90;;;;;;5074320;28;20187;-73
2022/06/10 13:06:52;;;;;;;1.88;1.60;;;22.60;99.90;;;;;;5073026;28;20259;-71
2022/06/10 13:09:31;;;;;;;2.88;1.23;;;22.70;99.90;;;;;;5074370;28;20168;-71
2022/06/10 13:12:10;;;;;;;2.30;1.20;;;23.10;99.90;;;;;;5073064;28;20167;-71
2022/06/10 13:15:08;;;;;;;3.85;1.10;;;23.30;99.90;;;;;;5074156;28;20663;-71
2022/06/10 13:17:56;;;;;;;4.05;1.23;;;23.40;99.90;;;;;;5072659;28;20176;-75
2022/06/10 13:20:26;;;;;;;7.82;1.33;;;23.20;99.90;;;;;;5074178;28;20621;-74
2022/06/10 13:23:21;;;;;;;4.68;1.50;;;23.00;99.90;;;;;;5072547;28;20227;-74
2022/06/10 13:26:10;;;;;;;3.00;1.65;;;23.00;99.90;;;;;;5074070;28;20255;-75
2022/06/10 13:28:45;;;;;;;2.42;1.48;;;23.00;99.90;;;;;;5072707;28;20267;-68
2022/06/10 13:31:21;;;;;;;5.30;1.40;;;22.90;99.90;;;;;;5073945;28;20628;-68
2022/06/10 13:34:06;;;;;;;2.80;1.63;;;22.90;99.90;;;;;;5073423;28;20163;-70
2022/06/10 13:36:43;;;;;;;12.52;2.03;;;22.90;99.90;;;;;;5073838;28;20171;-70
2022/06/10 13:39:30;;;;;;;5.47;2.30;;;23.10;99.90;;;;;;5073697;28;20167;-70
2022/06/10 13:41:58;;;;;;;2.55;1.20;;;23.20;99.90;;;;;;5073771;28;20172;-73
2022/06/10 13:44:32;;;;;;;2.65;1.27;;;23.20;99.90;;;;;;5073596;28;20275;-77
2022/06/10 13:46:59;;;;;;;2.15;1.38;;;23.40;99.90;;;;;;5073576;28;20246;-78
2022/06/10 13:49:55;;;;;;;3.00;1.75;;;23.60;99.90;;;;;;5073584;28;20625;-77
2022/06/10 13:52:33;;;;;;;1.23;1.10;;;23.80;99.90;;;;;;5073586;28;20160;-78
2022/06/10 13:55:26;;;;;;;1.40;1.15;;;23.90;99.90;;;;;;5073539;28;20170;-77
2022/06/10 13:58:10;;;;;;;1.65;1.50;;;23.90;99.90;;;;;;5072392;28;20163;-78
2022/06/10 14:00:42;;;;;;;6.20;1.52;;;23.80;99.90;;;;;;5072185;28;20266;-80
2022/06/10 14:03:41;;;;;;;1.63;1.17;;;24.00;99.90;;;;;;5073398;28;20340;-76
2022/06/10 14:06:21;;;;;;;1.75;1.65;;;24.50;99.90;;;;;;5072778;28;20176;-76
2022/06/10 14:08:57;;;;;;;2.22;1.13;;;24.80;99.90;;;;;;5072097;28;20527;-76
2022/06/10 14:11:27;;;;;;;3.97;1.50;;;24.80;99.90;;;;;;5073472;28;20547;-76
2022/06/10 14:14:04;;;;;;;1.15;1.05;;;24.50;99.90;;;;;;5072095;28;20168;-78
2022/06/10 14:16:32;;;;;;;5.10;1.20;;;24.20;99.90;;;;;;5073297;28;20705;-72
2022/06/10 14:19:00;;;;;;;3.33;1.33;;;24.00;99.90;;;;;;5073234;28;20172;-72
2022/06/10 14:21:26;;;;;;;2.75;1.10;;;24.20;99.90;;;;;;5073226;28;20195;-72
2022/06/10 14:24:19;;;;;;;4.03;1.45;;;24.80;99.90;;;;;;5073026;28;20227;-72
2022/06/10 14:27:18;;;;;;;3.47;1.30;;;25.40;99.90;;;;;;5073218;28;20521;-76
2022/06/10 14:29:50;;;;;;;1.77;0.98;;;25.60;99.90;;;;;;5060626;28;20176;-75
2022/06/10 14:32:27;;;;;;;2.22;1.15;;;25.20;99.90;;;;;;5072970;28;20183;-74
2022/06/10 14:34:58;;;;;;;2.80;1.15;;;24.80;99.90;;;;;;5073049;28;20198;-75
2022/06/10 14:37:34;;;;;;;2.67;1.58;;;24.40;99.90;;;;;;5071836;28;20168;-74
2022/06/10 14:40:16;;;;;;;1.58;1.20;;;24.20;99.90;;;;;;5072873;28;20160;-74
2022/06/10 14:42:45;;;;;;;1.15;1.10;;;24.00;99.90;;;;;;5072964;28;20214;-75
2022/06/10 14:45:31;;;;;;;3.17;1.45;;;23.90;99.90;;;;;;5073196;28;20175;-75
2022/06/10 14:48:05;;;;;;;2.10;1.17;;;23.90;99.90;;;;;;5075705;28;20225;-75
2022/06/10 14:50:34;;;;;;;3.42;1.20;;;23.90;99.90;;;;;;5076825;28;20179;-75
2022/06/10 14:52:59;;;;;;;1.85;1.58;;;24.00;99.90;;;;;;5076879;28;20551;-74
2022/06/10 14:55:34;;;;;;;0.95;0.90;;;24.30;99.90;;;;;;5076871;28;20163;-74
2022/06/10 14:58:09;;;;;;;1.33;1.08;;;24.60;99.90;;;;;;5075446;28;20171;-74
2022/06/10 15:00:35;;;;;;;1.60;1.50;;;24.60;99.90;;;;;;5076815;28;20170;-74
2022/06/10 15:03:02;;;;;;;2.22;1.30;;;24.30;99.90;;;;;;5076690;28;20171;-75
2022/06/10 15:08:18;;;;;;;1.13;0.93;;;24.30;99.90;;;;;;5076718;28;20247;-75
2022/06/10 15:10:47;;;;;;;1.10;1.10;;;24.80;99.90;;;;;;5076587;28;20167;-74
2022/06/10 15:13:16;;;;;;;3.85;1.38;;;25.20;99.90;;;;;;5076507;28;20663;-74
2022/06/10 15:15:43;;;;;;;5.18;1.02;;;25.50;99.90;;;;;;5075139;28;20186;-74
2022/06/10 15:18:16;;;;;;;1.88;1.10;;;25.90;99.90;;;;;;5076434;28;20285;-74
2022/06/10 15:20:43;;;;;;;2.00;1.58;;;25.90;99.90;;;;;;5076462;28;20246;-74
2022/06/10 15:23:15;;;;;;;2.83;1.35;;;26.20;99.90;;;;;;5074948;28;20226;-74
2022/06/10 15:25:44;;;;;;;4.07;1.55;;;26.20;99.90;;;;;;5076317;28;20263;-74
2022/06/10 15:28:19;;;;;;;1.55;1.35;;;26.40;99.90;;;;;;5076168;28;20168;-74
2022/06/10 15:30:45;;;;;;;3.35;1.75;;;26.10;99.90;;;;;;5076130;28;20163;-74
2022/06/10 15:33:14;;;;;;;8.10;1.63;;;25.90;99.90;;;;;;5076146;28;20195;-74
2022/06/10 15:41:30;;;;;;;4.20;1.80;;;25.70;99.90;;;;;;5076306;28;20212;-74
2022/06/10 15:43:56;;;;;;;2.70;1.25;;;25.30;99.90;;;;;;5076012;28;20529;-74
2022/06/10 15:46:25;;;;;;;4.65;1.80;;;25.20;99.90;;;;;;5076023;28;20633;-74
2022/06/10 15:48:52;;;;;;;4.28;1.80;;;25.00;99.90;;;;;;5075908;28;20176;-74
2022/06/10 15:51:24;;;;;;;2.08;1.55;;;24.80;99.90;;;;;;5074625;28;20183;-74
2022/06/10 15:53:51;;;;;;;1.63;1.42;;;24.50;99.90;;;;;;5075738;28;20195;-73
2022/06/10 15:59:05;;;;;;;4.95;1.40;;;24.70;99.90;;;;;;5075998;28;20546;-74
2022/06/10 16:01:31;;;;;;;3.75;2.05;;;25.20;99.90;;;;;;5075681;28;20164;-74
2022/06/10 16:03:57;;;;;;;2.25;1.52;;;25.30;99.90;;;;;;5075779;28;20175;-74
2022/06/10 16:06:23;;;;;;;2.25;1.60;;;25.20;99.90;;;;;;5075683;28;20621;-74
2022/06/10 16:08:48;;;;;;;4.80;1.90;;;25.00;99.90;;;;;;5075574;28;20168;-74
2022/06/10 16:11:18;;;;;;;3.70;1.50;;;24.60;99.90;;;;;;5075536;28;20580;-74
2022/06/10 16:13:47;;;;;;;3.85;2.20;;;24.20;99.90;;;;;;5075453;28;20183;-75
2022/06/10 16:16:22;;;;;;;3.38;1.73;;;23.90;99.90;;;;;;5075274;28;20164;-74
2022/06/10 16:18:49;;;;;;;3.83;1.92;;;23.60;99.90;;;;;;5075354;28;20174;-74
2022/06/10 16:21:17;;;;;;;4.10;1.95;;;23.50;99.90;;;;;;5075381;28;20172;-74
2022/06/10 16:23:43;;;;;;;3.88;2.42;;;23.40;99.90;;;;;;5073767;28;20221;-74
2022/06/10 16:26:21;;;;;;;7.55;2.65;;;23.40;99.90;;;;;;5073924;28;20185;-74
2022/06/10 16:28:51;;;;;;;4.18;1.90;;;23.40;99.90;;;;;;5073943;28;20183;-74
2022/06/10 16:31:21;;;;;;;3.03;2.08;;;23.30;99.90;;;;;;5075121;28;20229;-74
2022/06/10 16:33:47;;;;;;;3.95;1.80;;;23.20;99.90;;;;;;5075000;28;20231;-74
2022/06/10 16:36:15;;;;;;;5.38;1.45;;;23.10;99.90;;;;;;5075013;28;20632;-74
2022/06/10 16:38:42;;;;;;;3.38;2.08;;;23.00;99.90;;;;;;5074965;28;20237;-74
2022/06/10 16:41:16;;;;;;;6.80;2.42;;;22.80;99.90;;;;;;5074859;28;20190;-74
2022/06/10 16:43:42;;;;;;;1.98;1.77;;;22.70;99.90;;;;;;5074871;28;20197;-74
2022/06/10 16:46:15;;;;;;;4.88;1.80;;;22.50;99.90;;;;;;5073527;28;20270;-73
2022/06/10 16:48:41;;;;;;;3.63;2.30;;;22.40;99.90;;;;;;5074808;28;20195;-74
2022/06/10 16:51:09;;;;;;;3.30;1.70;;;22.40;99.90;;;;;;5073449;28;20645;-74
2022/06/10 16:53:34;;;;;;;2.08;1.58;;;22.40;99.90;;;;;;5074396;28;20193;-74
2022/06/10 16:56:00;;;;;;;3.63;1.92;;;22.40;99.90;;;;;;5073156;28;20168;-78
2022/06/10 16:58:36;;;;;;;2.53;1.40;;;22.30;99.90;;;;;;5074458;28;20270;-73
2022/06/10 17:01:02;;;;;;;2.88;1.60;;;22.30;99.90;;;;;;5073980;28;20160;-73
2022/06/10 17:03:28;;;;;;;3.97;2.15;;;22.30;99.90;;;;;;5074249;28;20211;-74
2022/06/10 17:05:54;;;;;;;3.35;1.75;;;22.20;99.90;;;;;;5073158;28;20229;-74
2022/06/10 17:08:25;;;;;;;4.35;1.48;;;22.10;99.90;;;;;;5073486;28;20475;-74
2022/06/10 17:10:58;;;;;;;4.35;1.88;;;22.00;99.90;;;;;;5074403;28;20209;-73
2022/06/10 17:13:30;;;;;;;1.75;1.50;;;21.90;99.90;;;;;;5074009;28;20222;-74
2022/06/10 17:15:56;;;;;;;11.63;2.15;;;21.90;99.90;;;;;;5074216;28;20255;-74
2022/06/10 17:18:26;;;;;;;1.50;1.40;;;21.80;99.90;;;;;;5072828;28;20255;-74
2022/06/10 17:20:54;;;;;;;2.75;1.80;;;21.70;99.90;;;;;;5072736;28;20203;-74
2022/06/10 17:23:23;;;;;;;2.38;2.05;;;21.70;99.90;;;;;;5073782;28;20289;-74
2022/06/10 17:26:00;;;;;;;3.88;2.10;;;21.50;99.90;;;;;;5073971;28;20220;-74
2022/06/10 17:28:27;;;;;;;2.85;1.55;;;21.60;99.90;;;;;;5073916;28;20218;-73
2022/06/10 17:30:58;;;;;;;2.42;1.58;;;21.50;99.90;;;;;;5073918;28;20163;-74
2022/06/10 17:33:37;;;;;;;2.63;1.70;;;21.50;99.90;;;;;;5073829;28;20252;-74
2022/06/10 17:36:04;;;;;;;2.22;1.30;;;21.50;99.90;;;;;;5073754;28;20164;-74
2022/06/10 17:38:33;;;;;;;3.28;1.65;;;21.40;99.90;;;;;;5073778;28;20189;-74
2022/06/10 17:41:00;;;;;;;1.70;1.45;;;21.40;99.90;;;;;;5073827;28;20156;-74
2022/06/10 17:43:36;;;;;;;3.80;1.80;;;21.40;99.90;;;;;;5073613;28;20309;-74
2022/06/10 17:46:01;;;;;;;4.63;1.63;;;21.40;99.90;;;;;;5073683;28;20250;-74
2022/06/10 17:48:27;;;;;;;2.15;1.52;;;21.40;99.90;;;;;;5073679;28;20293;-74
2022/06/10 17:50:52;;;;;;;4.53;1.83;;;21.40;99.90;;;;;;5073632;28;20498;-74
2022/06/10 17:53:18;;;;;;;2.88;1.60;;;21.40;99.90;;;;;;5073539;28;20249;-74
2022/06/10 17:55:44;;;;;;;2.42;1.83;;;21.40;99.90;;;;;;5073634;28;20178;-74
2022/06/10 17:58:15;;;;;;;1.70;1.60;;;21.40;99.90;;;;;;5073430;28;20250;-74
2022/06/10 18:00:48;;;;;;;4.13;1.52;;;21.30;99.90;;;;;;5072264;28;20164;-74
2022/06/10 18:14:53;;;;;;;2.53;1.92;;;21.10;99.90;;;;;;5090754;28;20998;-74
2022/06/10 18:17:20;;;;;;;3.33;2.20;;;21.10;99.90;;;;;;5090843;28;20173;-73
2022/06/10 18:19:46;;;;;;;2.67;1.98;;;21.10;99.90;;;;;;5090802;28;20699;-73
2022/06/10 18:22:16;;;;;;;3.08;1.52;;;21.10;99.90;;;;;;5090829;28;20202;-73
2022/06/10 18:24:42;;;;;;;1.77;1.50;;;21.00;99.90;;;;;;5090795;28;20167;-73
2022/06/10 18:27:31;;;;;;;3.35;1.95;;;21.00;99.90;;;;;;5090658;28;20223;-73
2022/06/10 18:30:00;;;;;;;6.38;2.17;;;20.90;99.90;;;;;;5090641;28;20246;-73
2022/06/10 18:32:30;;;;;;;3.03;1.92;;;20.90;99.90;;;;;;5089247;28;20213;-73
2022/06/10 18:34:59;;;;;;;3.38;1.90;;;20.80;99.90;;;;;;5090555;28;20238;-73
2022/06/10 19:08:46;;;;;;;9.85;2.10;;;21.40;99.90;;;;;;5090924;28;20540;-73
2022/06/10 19:11:20;;;;;;;4.35;1.65;;;19.90;99.90;;;;;;5090753;28;20636;-73
2022/06/10 19:13:45;;;;;;;6.90;2.20;;;19.90;99.90;;;;;;5090745;28;20176;-73
2022/06/10 19:16:16;;;;;;;3.28;2.30;;;19.60;99.90;;;;;;5090830;28;20246;-73
